createdAt,value
2022-11-05T00:00:48.782Z,14.68
2022-11-05T00:03:42.511Z,15.25
2022-11-05T00:06:28.987Z,15.73
2022-11-05T00:09:14.981Z,17.55
2022-11-05T00:12:00.792Z,21.42
2022-11-05T00:14:46.712Z,17.75
2022-11-05T00:17:13.902Z,22.67
2022-11-05T00:19:41.501Z,20.58
2022-11-05T00:22:28.177Z,19.63
2022-11-05T00:25:18.662Z,22.58
2022-11-05T00:27:48.504Z,25.20
2022-11-05T00:30:19.092Z,25.20
2022-11-05T00:32:48.632Z,29.33
2022-11-05T00:35:18.239Z,31.45
2022-11-05T00:37:49.797Z,30.38
2022-11-05T00:40:17.894Z,31.55
2022-11-05T00:43:03.685Z,36.20
2022-11-05T00:45:31.787Z,30.13
2022-11-05T00:48:17.679Z,29.80
2022-11-05T00:50:45.246Z,35.45
2022-11-05T00:53:12.535Z,36.63
2022-11-05T00:55:45.241Z,34.97
2022-11-05T00:58:14.957Z,33.03
2022-11-05T01:00:45.160Z,35.63
2022-11-05T01:03:14.945Z,35.78
2022-11-05T01:05:57.446Z,37.45
2022-11-05T01:08:26.916Z,35.38
2022-11-05T01:10:57.122Z,34.08
2022-11-05T01:13:30.323Z,37.45
2022-11-05T01:15:58.064Z,40.30
2022-11-05T01:18:25.490Z,32.92
2022-11-05T01:20:53.207Z,36.03
2022-11-05T01:23:21.061Z,34.72
2022-11-05T01:25:48.797Z,35.72
2022-11-05T01:28:15.984Z,31.83
2022-11-05T01:30:43.554Z,38.50
2022-11-05T01:33:11.106Z,31.17
2022-11-05T01:35:39.305Z,30.88
2022-11-05T01:38:06.540Z,31.27
2022-11-05T01:40:34.027Z,33.58
2022-11-05T01:43:01.192Z,33.60
2022-11-05T01:45:29.148Z,34.78
2022-11-05T01:47:59.346Z,39.42
2022-11-05T01:50:32.536Z,40.95
2022-11-05T01:53:09.919Z,32.25
2022-11-05T01:55:41.826Z,38.55
2022-11-05T01:58:15.306Z,38.78
2022-11-05T02:00:43.705Z,41.85
2022-11-05T02:03:13.375Z,35.67
2022-11-05T02:05:41.999Z,32.28
2022-11-05T02:08:22.037Z,33.95
2022-11-05T02:10:49.851Z,37.35
2022-11-05T02:13:17.284Z,31.33
2022-11-05T02:16:12.516Z,28.80
2022-11-05T02:18:42.540Z,28.60
2022-11-05T02:21:17.596Z,29.05
2022-11-05T02:24:07.968Z,30.50
2022-11-05T02:26:52.183Z,35.67
2022-11-05T02:29:56.386Z,34.45
2022-11-05T02:32:41.802Z,31.90
2022-11-05T02:35:30.766Z,33.00
2022-11-05T02:38:11.582Z,34.55
2022-11-05T02:41:03.724Z,38.73
2022-11-05T02:43:43.781Z,32.30
2022-11-05T02:46:26.826Z,32.85
2022-11-05T02:49:04.294Z,33.15
2022-11-05T02:51:39.672Z,42.83
2022-11-05T02:54:16.382Z,37.33
2022-11-05T02:56:48.420Z,36.65
2022-11-05T02:59:15.669Z,42.85
2022-11-05T03:01:45.916Z,32.55
2022-11-05T03:04:16.603Z,34.53
2022-11-05T03:07:10.450Z,33.53
2022-11-05T03:09:55.674Z,39.45
2022-11-05T03:12:34.982Z,39.97
2022-11-05T03:15:08.305Z,36.67
2022-11-05T03:17:50.857Z,42.97
2022-11-05T03:20:30.236Z,62.80
2022-11-05T03:23:00.586Z,41.35
2022-11-05T03:25:30.499Z,57.03
2022-11-05T03:28:03.034Z,44.17
2022-11-05T03:30:32.897Z,42.55
2022-11-05T03:33:07.120Z,44.50
2022-11-05T03:35:56.591Z,44.63
2022-11-05T03:38:46.911Z,39.33
2022-11-05T03:41:16.208Z,39.97
2022-11-05T03:43:49.958Z,44.10
2022-11-05T03:46:35.117Z,42.38
2022-11-05T03:49:06.636Z,41.47
2022-11-05T03:51:46.180Z,63.03
2022-11-05T03:54:14.424Z,44.78
2022-11-05T03:56:53.800Z,42.22
2022-11-05T03:59:22.650Z,40.45
2022-11-05T04:01:50.150Z,45.45
2022-11-05T04:04:17.777Z,45.47
2022-11-05T04:07:03.164Z,42.10
2022-11-05T04:09:48.821Z,41.92
2022-11-05T04:12:34.725Z,42.13
2022-11-05T04:15:02.202Z,52.05
2022-11-05T04:17:29.373Z,42.95
2022-11-05T04:20:25.975Z,50.53
2022-11-05T04:23:20.039Z,44.25
2022-11-05T04:25:47.704Z,49.15
2022-11-05T04:28:14.931Z,51.17
2022-11-05T04:30:44.433Z,56.83
2022-11-05T04:33:15.120Z,56.03
2022-11-05T04:35:45.363Z,53.35
2022-11-05T04:38:15.445Z,54.08
2022-11-05T04:40:43.565Z,59.05
2022-11-05T04:43:15.334Z,70.97
2022-11-05T04:45:43.825Z,61.97
2022-11-05T04:48:11.598Z,66.25
2022-11-05T04:50:39.638Z,62.60
2022-11-05T04:53:06.865Z,58.35
2022-11-05T04:55:34.265Z,59.92
2022-11-05T04:58:01.570Z,56.00
2022-11-05T05:00:29.069Z,71.50
2022-11-05T05:02:56.278Z,62.72
2022-11-05T05:05:23.707Z,57.60
2022-11-05T05:07:50.886Z,58.35
2022-11-05T05:10:18.353Z,59.75
2022-11-05T05:12:45.545Z,64.30
2022-11-05T05:15:13.091Z,64.40
2022-11-05T05:17:40.233Z,69.40
2022-11-05T05:20:26.262Z,65.57
2022-11-05T05:22:54.303Z,60.33
2022-11-05T05:25:22.786Z,64.55
2022-11-05T05:27:49.944Z,59.05
2022-11-05T05:30:17.630Z,55.28
2022-11-05T05:32:44.775Z,55.25
2022-11-05T05:35:12.242Z,53.88
2022-11-05T05:37:39.510Z,56.05
2022-11-05T05:40:07.615Z,54.60
2022-11-05T05:42:40.170Z,55.45
2022-11-05T05:45:11.424Z,50.58
2022-11-05T05:47:38.819Z,57.92
2022-11-05T05:50:06.411Z,84.68
2022-11-05T05:52:33.645Z,69.65
2022-11-05T05:55:01.130Z,76.00
2022-11-05T05:57:28.268Z,56.45
2022-11-05T05:59:55.678Z,60.50
2022-11-05T06:02:23.172Z,91.38
2022-11-05T06:04:50.720Z,72.85
2022-11-05T06:07:17.844Z,72.68
2022-11-05T06:09:45.277Z,61.97
2022-11-05T06:12:12.610Z,62.03
2022-11-05T06:14:40.234Z,58.67
2022-11-05T06:17:07.992Z,56.03
2022-11-05T06:19:35.442Z,57.97
2022-11-05T06:22:02.567Z,135.23
2022-11-05T06:24:29.982Z,47.17
2022-11-05T06:26:57.101Z,51.03
2022-11-05T06:29:24.519Z,44.20
2022-11-05T06:31:51.641Z,46.92
2022-11-05T06:34:19.121Z,43.17
2022-11-05T06:36:46.318Z,43.47
2022-11-05T06:39:13.787Z,39.03
2022-11-05T06:44:28.378Z,34.60
2022-11-05T06:46:55.600Z,39.72
2022-11-05T06:49:25.855Z,37.30
2022-11-05T06:51:53.262Z,36.47
2022-11-05T06:54:21.162Z,38.53
2022-11-05T06:56:48.367Z,35.05
2022-11-05T06:59:15.809Z,39.85
2022-11-05T07:01:43.070Z,36.15
2022-11-05T07:04:12.443Z,35.75
2022-11-05T07:06:39.581Z,37.85
2022-11-05T07:09:06.987Z,34.90
2022-11-05T07:11:34.238Z,47.92
2022-11-05T07:14:01.773Z,50.25
2022-11-05T07:16:29.140Z,33.65
2022-11-05T07:18:56.558Z,41.00
2022-11-05T07:21:23.719Z,37.30
2022-11-05T07:23:51.170Z,47.92
2022-11-05T07:26:18.309Z,33.50
2022-11-05T07:28:45.822Z,37.40
2022-11-05T07:31:13.029Z,41.33
2022-11-05T07:33:41.001Z,34.33
2022-11-05T07:36:08.696Z,40.55
2022-11-05T07:38:36.131Z,34.65
2022-11-05T07:41:03.356Z,36.88
2022-11-05T07:43:30.809Z,34.45
2022-11-05T07:45:57.985Z,32.72
2022-11-05T07:48:25.489Z,37.08
2022-11-05T07:50:53.387Z,38.28
2022-11-05T07:53:21.356Z,41.60
2022-11-05T07:55:48.611Z,49.83
2022-11-05T07:58:16.053Z,89.78
2022-11-05T08:00:43.287Z,50.80
2022-11-05T08:03:15.166Z,55.42
2022-11-05T08:05:46.065Z,49.33
2022-11-05T08:08:16.455Z,50.83
2022-11-05T08:10:44.011Z,44.03
2022-11-05T08:13:13.320Z,46.17
2022-11-05T08:15:41.048Z,45.92
2022-11-05T08:18:12.394Z,48.38
2022-11-05T08:20:40.774Z,46.72
2022-11-05T08:23:08.554Z,44.10
2022-11-05T08:25:35.956Z,41.63
2022-11-05T08:28:10.595Z,45.70
2022-11-05T08:30:37.781Z,52.50
2022-11-05T08:33:11.700Z,45.83
2022-11-05T08:35:39.958Z,51.20
2022-11-05T08:38:10.527Z,44.47
2022-11-05T08:40:38.053Z,40.65
2022-11-05T08:43:07.104Z,47.05
2022-11-05T08:45:36.029Z,40.83
2022-11-05T08:48:17.314Z,35.40
2022-11-05T08:50:46.072Z,36.60
2022-11-05T08:53:14.426Z,34.83
2022-11-05T08:55:42.020Z,32.58
2022-11-05T08:58:12.842Z,30.98
2022-11-05T09:00:40.316Z,30.92
2022-11-05T09:03:09.462Z,29.33
2022-11-05T09:05:39.416Z,24.40
2022-11-05T09:08:11.884Z,24.05
2022-11-05T09:10:40.497Z,25.65
2022-11-05T09:13:11.728Z,24.52
2022-11-05T09:15:42.570Z,22.10
2022-11-05T09:18:14.008Z,20.50
2022-11-05T09:20:41.835Z,18.88
2022-11-05T09:23:11.262Z,19.30
2022-11-05T09:25:38.804Z,17.55
2022-11-05T09:28:17.129Z,15.48
2022-11-05T09:30:47.094Z,14.82
2022-11-05T09:33:15.509Z,15.25
2022-11-05T09:35:43.142Z,14.70
2022-11-05T09:38:10.937Z,17.95
2022-11-05T09:40:47.506Z,17.63
2022-11-05T09:43:26.102Z,15.18
2022-11-05T09:46:02.352Z,16.58
2022-11-05T09:48:33.373Z,18.50
2022-11-05T09:51:00.860Z,17.95
2022-11-05T09:53:28.562Z,13.70
2022-11-05T09:55:57.816Z,17.60
2022-11-05T09:58:50.108Z,14.40
2022-11-05T10:01:24.147Z,14.45
2022-11-05T10:03:56.278Z,15.02
2022-11-05T10:06:25.915Z,13.48
2022-11-05T10:09:05.445Z,11.27
2022-11-05T10:11:38.743Z,10.68
2022-11-05T10:14:14.025Z,11.20
2022-11-05T10:16:43.893Z,11.60
2022-11-05T10:19:24.735Z,8.68
2022-11-05T10:22:07.115Z,9.50
2022-11-05T10:24:35.050Z,7.45
2022-11-05T10:27:03.200Z,6.25
2022-11-05T10:29:33.593Z,6.90
2022-11-05T10:32:03.380Z,5.82
2022-11-05T10:34:34.931Z,8.27
2022-11-05T10:37:02.283Z,6.95
2022-11-05T10:39:32.030Z,7.20
2022-11-05T10:42:08.090Z,6.30
2022-11-05T10:44:48.574Z,5.50
2022-11-05T10:47:35.561Z,9.05
2022-11-05T10:50:10.017Z,5.00
2022-11-05T10:52:42.906Z,3.70
2022-11-05T10:55:25.740Z,6.63
2022-11-05T10:57:53.352Z,6.13
2022-11-05T11:00:24.098Z,5.95
2022-11-05T11:02:59.798Z,3.55
2022-11-05T11:05:38.587Z,3.40
2022-11-05T11:08:11.889Z,4.05
2022-11-05T11:10:48.400Z,4.20
2022-11-05T11:13:27.830Z,4.13
2022-11-05T11:16:13.032Z,6.40
2022-11-05T11:18:42.686Z,4.95
2022-11-05T11:21:23.340Z,5.22
2022-11-05T11:24:07.071Z,2.55
2022-11-05T11:26:39.827Z,3.78
2022-11-05T11:29:16.228Z,4.65
2022-11-05T11:31:43.895Z,7.05
2022-11-05T11:34:27.260Z,6.65
2022-11-05T11:37:03.093Z,4.18
2022-11-05T11:39:32.214Z,3.58
2022-11-05T11:42:14.732Z,4.75
2022-11-05T11:44:45.192Z,4.07
2022-11-05T11:47:16.770Z,5.15
2022-11-05T11:49:59.145Z,5.95
2022-11-05T11:52:28.535Z,2.38
2022-11-05T11:55:10.925Z,3.47
2022-11-05T11:57:53.343Z,5.38
2022-11-05T12:00:24.113Z,2.47
2022-11-05T12:03:01.831Z,4.47
2022-11-05T12:05:39.254Z,5.95
2022-11-05T12:08:27.969Z,3.15
2022-11-05T12:11:04.657Z,2.58
2022-11-05T12:14:03.990Z,6.00
2022-11-05T12:16:58.911Z,2.75
2022-11-05T12:19:41.688Z,4.22
2022-11-05T12:22:18.136Z,3.58
2022-11-05T12:24:51.659Z,4.35
2022-11-05T12:27:40.292Z,5.38
2022-11-05T12:30:18.332Z,3.10
2022-11-05T12:33:07.379Z,2.65
2022-11-05T12:35:57.368Z,2.63
2022-11-05T12:38:49.945Z,4.00
2022-11-05T12:41:54.182Z,5.60
2022-11-05T12:45:09.176Z,4.82
2022-11-05T12:47:41.847Z,7.47
2022-11-05T12:50:31.286Z,6.00
2022-11-05T12:53:40.131Z,5.00
2022-11-05T12:56:16.935Z,5.45
2022-11-05T12:58:50.729Z,5.93
2022-11-05T13:01:28.407Z,7.30
2022-11-05T13:04:00.932Z,6.90
2022-11-05T13:06:42.183Z,8.20
2022-11-05T13:09:09.578Z,6.82
2022-11-05T13:11:44.409Z,5.55
2022-11-05T13:14:21.625Z,11.82
2022-11-05T13:16:53.964Z,6.43
2022-11-05T13:19:32.184Z,9.57
2022-11-05T13:22:22.328Z,9.35
2022-11-05T13:24:53.714Z,11.05
2022-11-05T13:27:42.306Z,5.80
2022-11-05T13:30:19.763Z,10.10
2022-11-05T13:32:59.974Z,6.55
2022-11-05T13:35:37.234Z,8.43
2022-11-05T13:38:31.737Z,7.20
2022-11-05T13:41:21.495Z,8.60
2022-11-05T13:43:57.643Z,12.40
2022-11-05T13:47:02.076Z,6.93
2022-11-05T13:49:49.231Z,10.70
2022-11-05T13:52:35.591Z,9.38
2022-11-05T13:55:56.756Z,10.07
2022-11-05T13:58:36.116Z,10.43
2022-11-05T14:01:25.027Z,10.00
2022-11-05T14:03:55.426Z,14.90
2022-11-05T14:06:33.850Z,10.40
2022-11-05T14:09:07.614Z,6.88
2022-11-05T14:11:42.874Z,6.57
2022-11-05T14:14:26.596Z,10.82
2022-11-05T14:17:05.364Z,7.20
2022-11-05T14:19:36.937Z,9.65
2022-11-05T14:22:33.150Z,7.10
2022-11-05T14:25:02.830Z,14.38
2022-11-05T14:27:29.895Z,9.82
2022-11-05T14:29:57.335Z,12.35
2022-11-05T14:32:43.613Z,8.88
2022-11-05T14:35:16.889Z,10.00
2022-11-05T14:37:56.203Z,17.25
2022-11-05T14:40:36.441Z,9.45
2022-11-05T14:43:23.666Z,10.57
2022-11-05T14:46:02.917Z,10.65
2022-11-05T14:48:41.245Z,9.60
2022-11-05T14:51:35.742Z,12.15
2022-11-05T14:54:04.739Z,9.95
2022-11-05T14:56:50.508Z,16.50
2022-11-05T14:59:31.696Z,10.43
2022-11-05T15:02:03.129Z,15.32
2022-11-05T15:04:30.932Z,15.30
2022-11-05T15:07:04.380Z,10.02
2022-11-05T15:09:35.604Z,11.40
2022-11-05T15:12:24.486Z,13.57
2022-11-05T15:15:03.148Z,11.98
2022-11-05T15:17:45.942Z,11.77
2022-11-05T15:20:20.183Z,12.38
2022-11-05T15:22:56.406Z,12.75
2022-11-05T15:25:31.347Z,13.70
2022-11-05T15:28:27.605Z,8.98
2022-11-05T15:31:19.502Z,11.77
2022-11-05T15:33:48.287Z,10.73
2022-11-05T15:36:30.650Z,10.40
2022-11-05T15:41:46.940Z,10.07
2022-11-05T15:44:38.515Z,9.32
2022-11-05T15:47:18.845Z,12.07
2022-11-05T15:50:14.290Z,8.40
2022-11-05T15:52:53.299Z,10.75
2022-11-05T15:55:25.741Z,7.85
2022-11-05T15:58:00.120Z,10.40
2022-11-05T16:00:30.120Z,9.82
2022-11-05T16:03:04.587Z,10.80
2022-11-05T16:05:35.303Z,10.85
2022-11-05T16:08:04.473Z,12.93
2022-11-05T16:10:35.407Z,12.13
2022-11-05T16:13:41.985Z,13.15
2022-11-05T16:16:14.863Z,14.85
2022-11-05T16:18:43.910Z,11.90
2022-11-05T16:21:17.668Z,9.77
2022-11-05T16:23:56.888Z,12.18
2022-11-05T16:29:30.712Z,11.23
2022-11-05T16:32:00.108Z,13.45
2022-11-05T16:34:37.018Z,13.80
2022-11-05T16:37:07.102Z,11.50
2022-11-05T16:39:34.771Z,10.57
2022-11-05T16:42:01.943Z,14.43
2022-11-05T16:44:29.547Z,16.00
2022-11-05T16:46:56.767Z,13.48
2022-11-05T16:49:24.197Z,16.27
2022-11-05T16:51:52.508Z,14.57
2022-11-05T16:54:20.021Z,18.15
2022-11-05T16:56:47.505Z,13.40
2022-11-05T16:59:15.322Z,16.85
2022-11-05T17:01:43.010Z,17.23
2022-11-05T17:04:13.227Z,13.88
2022-11-05T17:06:40.826Z,17.00
2022-11-05T17:09:08.393Z,22.92
2022-11-05T17:11:35.615Z,19.75
2022-11-05T17:14:03.101Z,15.43
2022-11-05T17:16:30.434Z,13.23
2022-11-05T17:18:58.189Z,21.75
2022-11-05T17:21:25.363Z,16.10
2022-11-05T17:23:52.783Z,12.73
2022-11-05T17:26:21.156Z,14.90
2022-11-05T17:28:48.675Z,18.63
2022-11-05T17:31:17.398Z,21.30
2022-11-05T17:33:44.956Z,17.55
2022-11-05T17:36:15.230Z,22.05
2022-11-05T17:38:43.008Z,17.73
2022-11-05T17:41:14.330Z,15.30
2022-11-05T17:43:41.988Z,17.77
2022-11-05T17:46:13.249Z,15.70
2022-11-05T17:48:41.428Z,19.85
2022-11-05T17:51:10.314Z,19.48
2022-11-05T17:53:38.382Z,18.25
2022-11-05T17:56:09.861Z,16.83
2022-11-05T18:01:05.457Z,18.45
2022-11-05T18:03:33.066Z,24.25
2022-11-05T18:06:06.813Z,18.35
2022-11-05T18:08:34.541Z,19.08
2022-11-05T18:11:02.446Z,19.42
2022-11-05T18:13:29.858Z,19.02
2022-11-05T18:15:57.105Z,19.70
2022-11-05T18:18:24.685Z,19.00
2022-11-05T18:20:51.956Z,20.65
2022-11-05T18:23:19.895Z,19.45
2022-11-05T18:25:47.020Z,17.92
2022-11-05T18:28:14.799Z,16.45
2022-11-05T18:30:42.488Z,17.60
2022-11-05T18:33:10.283Z,16.40
2022-11-05T18:35:44.686Z,19.30
2022-11-05T18:38:12.552Z,21.88
2022-11-05T18:40:39.954Z,16.20
2022-11-05T18:43:07.604Z,18.75
2022-11-05T18:45:35.211Z,19.90
2022-11-05T18:48:03.255Z,16.55
2022-11-05T18:50:30.677Z,20.17
2022-11-05T18:52:58.325Z,14.95
2022-11-05T18:55:25.506Z,21.17
2022-11-05T18:57:52.937Z,16.65
2022-11-05T19:00:20.334Z,11.15
2022-11-05T19:02:47.878Z,20.55
2022-11-05T19:05:28.572Z,16.60
2022-11-05T19:10:24.434Z,16.05
2022-11-05T19:12:51.920Z,14.93
2022-11-05T19:15:19.239Z,17.67
2022-11-05T19:17:46.729Z,21.15
2022-11-05T19:20:13.879Z,25.15
2022-11-05T19:22:41.342Z,22.13
2022-11-05T19:25:08.755Z,22.63
2022-11-05T19:27:37.556Z,21.92
2022-11-05T19:30:05.930Z,18.13
2022-11-05T19:32:33.455Z,19.88
2022-11-05T19:35:00.632Z,14.50
2022-11-05T19:37:28.085Z,18.20
2022-11-05T19:39:55.215Z,15.60
2022-11-05T19:42:22.684Z,13.38
2022-11-05T19:44:49.848Z,16.27
2022-11-05T19:47:17.654Z,15.60
2022-11-05T19:49:44.915Z,18.50
2022-11-05T19:52:12.350Z,15.32
2022-11-05T19:54:39.602Z,22.27
2022-11-05T19:57:07.028Z,14.15
2022-11-05T19:59:34.277Z,13.80
2022-11-05T20:02:01.920Z,13.43
2022-11-05T20:04:29.465Z,15.60
2022-11-05T20:06:57.414Z,15.95
2022-11-05T20:09:24.872Z,19.20
2022-11-05T20:11:54.642Z,14.38
2022-11-05T20:14:23.402Z,13.93
2022-11-05T20:16:50.955Z,19.52
2022-11-05T20:19:20.792Z,18.08
2022-11-05T20:21:48.712Z,15.18
2022-11-05T20:24:23.791Z,11.75
2022-11-05T20:26:56.231Z,15.63
2022-11-05T20:29:27.868Z,18.30
2022-11-05T20:31:58.337Z,13.70
2022-11-05T20:34:25.571Z,12.23
2022-11-05T20:36:53.065Z,18.55
2022-11-05T20:39:21.247Z,15.73
2022-11-05T20:41:48.722Z,17.08
2022-11-05T20:44:16.006Z,17.35
2022-11-05T20:46:43.837Z,15.68
2022-11-05T20:49:11.013Z,17.42
2022-11-05T20:51:38.490Z,16.60
2022-11-05T20:54:05.877Z,18.35
2022-11-05T20:56:37.325Z,13.10
2022-11-05T20:59:05.504Z,15.05
2022-11-05T21:01:34.540Z,14.80
2022-11-05T21:04:03.204Z,19.58
2022-11-05T21:06:31.723Z,17.08
2022-11-05T21:08:58.999Z,13.80
2022-11-05T21:11:27.635Z,18.00
2022-11-05T21:13:55.076Z,18.58
2022-11-05T21:16:22.664Z,11.93
2022-11-05T21:18:49.903Z,14.50
2022-11-05T21:21:20.301Z,18.30
2022-11-05T21:23:47.795Z,18.02
2022-11-05T21:26:16.946Z,21.67
2022-11-05T21:28:44.313Z,20.90
2022-11-05T21:31:11.879Z,18.48
2022-11-05T21:33:39.174Z,13.43
2022-11-05T21:36:09.354Z,11.45
2022-11-05T21:38:37.302Z,17.05
2022-11-05T21:41:05.980Z,13.38
2022-11-05T21:43:33.770Z,13.82
2022-11-05T21:46:02.710Z,13.43
2022-11-05T21:48:30.905Z,14.55
2022-11-05T21:51:17.039Z,20.65
2022-11-05T21:54:02.794Z,14.05
2022-11-05T21:56:49.080Z,17.10
2022-11-05T21:59:41.760Z,14.07
2022-11-05T22:02:12.378Z,13.77
2022-11-05T22:04:45.545Z,14.10
2022-11-05T22:07:15.695Z,17.20
2022-11-05T22:09:43.004Z,12.52
2022-11-05T22:12:11.290Z,15.10
2022-11-05T22:14:39.097Z,9.45
2022-11-05T22:17:07.688Z,15.73
2022-11-05T22:19:35.386Z,13.18
2022-11-05T22:22:04.580Z,18.35
2022-11-05T22:24:32.453Z,16.70
2022-11-05T22:27:01.520Z,16.23
2022-11-05T22:29:29.106Z,20.23
2022-11-05T22:31:57.266Z,14.05
2022-11-05T22:34:26.034Z,17.92
2022-11-05T22:36:54.013Z,12.23
2022-11-05T22:39:21.765Z,16.42
2022-11-05T22:41:49.639Z,14.00
2022-11-05T22:44:17.367Z,17.90
2022-11-05T22:46:44.999Z,16.83
2022-11-05T22:49:12.716Z,11.35
2022-11-05T22:51:40.563Z,12.82
2022-11-05T22:54:07.992Z,13.80
2022-11-05T22:56:38.605Z,17.08
2022-11-05T22:59:07.106Z,15.13
2022-11-05T23:01:34.917Z,12.68
2022-11-05T23:04:02.191Z,15.73
2022-11-05T23:06:51.072Z,14.05
2022-11-05T23:09:42.919Z,16.50
2022-11-05T23:12:20.969Z,13.60
2022-11-05T23:14:48.539Z,11.05
2022-11-05T23:17:34.489Z,11.80
2022-11-05T23:20:20.759Z,12.43
2022-11-05T23:23:06.747Z,16.45
2022-11-05T23:25:33.996Z,18.48
2022-11-05T23:28:07.180Z,11.10
2022-11-05T23:30:34.388Z,14.38
2022-11-05T23:33:01.848Z,8.93
2022-11-05T23:35:47.772Z,11.60
2022-11-05T23:38:34.097Z,14.93
2022-11-05T23:41:21.245Z,10.45
2022-11-05T23:44:07.203Z,9.73
2022-11-05T23:46:53.448Z,12.63
2022-11-05T23:49:21.288Z,13.70
2022-11-05T23:51:49.107Z,13.07
2022-11-05T23:54:16.744Z,13.20
2022-11-05T23:56:43.935Z,14.07
2022-11-05T23:59:11.458Z,16.38
